createdAt,value
2019-05-12T00:00:38.000Z,26.6
2019-05-12T00:02:23.000Z,26.6
2019-05-12T00:03:38.000Z,26.6
2019-05-12T00:04:38.000Z,26.7
2019-05-12T00:06:38.000Z,26.7
2019-05-12T00:07:38.000Z,26.7
2019-05-12T00:08:38.000Z,26.8
2019-05-12T00:10:38.000Z,26.8
2019-05-12T00:11:38.000Z,26.8
2019-05-12T00:13:38.000Z,26.8
2019-05-12T00:15:38.000Z,26.8
2019-05-12T00:17:38.000Z,26.7
2019-05-12T00:18:38.000Z,26.7
2019-05-12T00:19:38.000Z,26.7
2019-05-12T00:21:38.000Z,26.7
2019-05-12T00:23:23.000Z,26.6
2019-05-12T00:24:39.000Z,26.5
2019-05-12T00:25:39.000Z,26.5
2019-05-12T00:26:39.000Z,26.5
2019-05-12T00:28:39.000Z,26.6
2019-05-12T00:29:39.000Z,26.7
2019-05-12T00:30:39.000Z,26.8
2019-05-12T00:32:39.000Z,26.8
2019-05-12T00:34:39.000Z,26.8
2019-05-12T00:35:39.000Z,26.8
2019-05-12T00:37:39.000Z,26.8
2019-05-12T00:39:39.000Z,26.8
2019-05-12T00:40:39.000Z,26.8
2019-05-12T00:42:39.000Z,26.8
2019-05-12T00:44:39.000Z,26.7
2019-05-12T00:46:39.000Z,26.6
2019-05-12T00:47:39.000Z,26.6
2019-05-12T00:49:39.000Z,26.7
2019-05-12T00:51:39.000Z,26.7
2019-05-12T00:53:24.000Z,26.5
2019-05-12T00:54:39.000Z,26.4
2019-05-12T00:56:39.000Z,26.3
2019-05-12T00:58:39.000Z,26.3
2019-05-12T00:59:39.000Z,26.3
2019-05-12T01:01:39.000Z,26.5
2019-05-12T01:03:39.000Z,26.5
2019-05-12T01:05:39.000Z,26.6
2019-05-12T01:07:24.000Z,26.6
2019-05-12T01:08:39.000Z,26.6
2019-05-12T01:10:39.000Z,26.6
2019-05-12T01:12:39.000Z,26.6
2019-05-12T01:14:39.000Z,26.6
2019-05-12T01:16:39.000Z,26.6
2019-05-12T01:17:39.000Z,26.6
2019-05-12T01:19:39.000Z,26.6
2019-05-12T01:21:39.000Z,26.4
2019-05-12T01:22:39.000Z,26.4
2019-05-12T01:24:39.000Z,26.5
2019-05-12T01:26:39.000Z,26.5
2019-05-12T01:27:39.000Z,26.5
2019-05-12T01:28:39.000Z,26.5
2019-05-12T01:30:39.000Z,26.7
2019-05-12T01:31:39.000Z,26.7
2019-05-12T01:33:39.000Z,26.8
2019-05-12T01:34:39.000Z,26.8
2019-05-12T01:36:39.000Z,26.8
2019-05-12T01:37:39.000Z,26.8
2019-05-12T01:39:39.000Z,26.8
2019-05-12T01:41:39.000Z,26.6
2019-05-12T01:42:39.000Z,26.6
2019-05-12T01:44:39.000Z,26.6
2019-05-12T01:46:39.000Z,26.6
2019-05-12T01:48:39.000Z,26.5
2019-05-12T01:49:39.000Z,26.5
2019-05-12T01:51:39.000Z,26.6
2019-05-12T01:52:39.000Z,26.6
2019-05-12T01:54:39.000Z,26.6
2019-05-12T01:55:39.000Z,26.6
2019-05-12T01:56:39.000Z,26.7
2019-05-12T01:58:39.000Z,26.8
2019-05-12T02:00:39.000Z,26.7
2019-05-12T02:02:39.000Z,26.7
2019-05-12T02:03:39.000Z,26.7
2019-05-12T02:05:39.000Z,26.7
2019-05-12T02:07:39.000Z,26.7
2019-05-12T02:08:39.000Z,26.7
2019-05-12T02:09:39.000Z,26.8
2019-05-12T02:11:39.000Z,26.8
2019-05-12T02:13:39.000Z,26.7
2019-05-12T02:15:39.000Z,26.7
2019-05-12T02:16:39.000Z,26.7
2019-05-12T02:18:39.000Z,26.7
2019-05-12T02:20:39.000Z,26.6
2019-05-12T02:21:39.000Z,26.6
2019-05-12T02:23:39.000Z,26.7
2019-05-12T02:25:39.000Z,26.7
2019-05-12T02:26:39.000Z,26.6
2019-05-12T02:28:39.000Z,26.6
2019-05-12T02:30:39.000Z,26.6
2019-05-12T02:32:24.000Z,26.4
2019-05-12T02:33:39.000Z,26.3
2019-05-12T02:35:24.000Z,26.2
2019-05-12T02:36:24.000Z,26.2
2019-05-12T02:37:25.000Z,26.1
2019-05-12T02:39:24.000Z,25.9
2019-05-12T02:40:25.000Z,25.8
2019-05-12T02:42:39.000Z,25.6
2019-05-12T02:44:24.000Z,25.6
2019-05-12T02:46:24.000Z,25.5
2019-05-12T02:47:39.000Z,25.5
2019-05-12T02:48:39.000Z,25.5
2019-05-12T02:49:39.000Z,25.7
2019-05-12T02:51:24.000Z,25.9
2019-05-12T02:52:24.000Z,25.8
2019-05-12T02:54:36.000Z,25.8
2019-05-12T02:56:24.000Z,25.7
2019-05-12T02:57:25.000Z,25.6
2019-05-12T02:59:25.000Z,25.5
2019-05-12T03:00:39.000Z,25.5
2019-05-12T03:01:39.000Z,25.6
2019-05-12T03:03:24.000Z,25.8
2019-05-12T03:04:24.000Z,25.8
2019-05-12T03:06:25.000Z,25.8
2019-05-12T03:08:25.000Z,25.7
2019-05-12T03:09:39.000Z,25.7
2019-05-12T03:11:24.000Z,25.7
2019-05-12T03:12:24.000Z,25.8
2019-05-12T03:13:25.000Z,25.7
2019-05-12T03:15:25.000Z,25.7
2019-05-12T03:17:25.000Z,25.7
2019-05-12T03:19:25.000Z,25.7
2019-05-12T03:20:39.000Z,25.7
2019-05-12T03:22:24.000Z,25.3
2019-05-12T03:23:24.000Z,25.6
2019-05-12T03:25:29.000Z,25.6
2019-05-12T03:27:25.000Z,25.5
2019-05-12T03:28:25.000Z,25.4
2019-05-12T03:30:24.000Z,25.4
2019-05-12T03:31:31.000Z,25.3
2019-05-12T03:33:24.000Z,25.2
2019-05-12T03:34:29.000Z,25.2
2019-05-12T03:36:32.000Z,25.1
2019-05-12T03:38:24.000Z,25
2019-05-12T03:39:24.000Z,25
2019-05-12T03:41:25.000Z,25
2019-05-12T03:43:39.000Z,25.1
2019-05-12T03:45:25.000Z,25.3
2019-05-12T03:47:25.000Z,25.4
2019-05-12T03:49:39.000Z,25.4
2019-05-12T03:51:25.000Z,25.5
2019-05-12T03:52:39.000Z,25.6
2019-05-12T03:54:24.000Z,25.7
2019-05-12T03:55:24.000Z,25.7
2019-05-12T03:56:25.000Z,25.7
2019-05-12T03:58:24.000Z,25.6
2019-05-12T03:59:24.000Z,25.6
2019-05-12T04:00:24.000Z,25.5
2019-05-12T04:02:25.000Z,25.5
2019-05-12T04:04:39.000Z,25.5
2019-05-12T04:05:39.000Z,25.5
2019-05-12T04:07:39.000Z,25.6
2019-05-12T04:09:24.000Z,25.8
2019-05-12T04:11:24.000Z,25.8
2019-05-12T04:13:26.000Z,25.7
2019-05-12T04:15:24.000Z,25.5
2019-05-12T04:16:24.000Z,25.5
2019-05-12T04:17:39.000Z,25.5
2019-05-12T04:19:24.000Z,25.6
2019-05-12T04:20:24.000Z,25.6
2019-05-12T04:21:24.000Z,25.6
2019-05-12T04:23:24.000Z,25.6
2019-05-12T04:25:25.000Z,25.6
2019-05-12T04:26:25.000Z,25.6
2019-05-12T04:28:24.000Z,25.6
2019-05-12T04:30:25.000Z,25.6
2019-05-12T04:32:25.000Z,25.6
2019-05-12T04:34:25.000Z,25.6
2019-05-12T04:36:24.000Z,25.7
2019-05-12T04:37:24.000Z,25.6
2019-05-12T04:38:24.000Z,25.6
2019-05-12T04:40:24.000Z,25.6
2019-05-12T04:42:24.000Z,25.6
2019-05-12T04:43:25.000Z,25.5
2019-05-12T04:45:25.000Z,25.5
2019-05-12T04:47:25.000Z,25.6
2019-05-12T04:49:24.000Z,25.6
2019-05-12T04:51:25.000Z,25.6
2019-05-12T04:53:24.000Z,25.6
2019-05-12T04:54:24.000Z,25.5
2019-05-12T04:56:24.000Z,25.5
2019-05-12T04:57:24.000Z,25.5
2019-05-12T04:58:25.000Z,25.5
2019-05-12T05:00:25.000Z,25.5
2019-05-12T05:02:24.000Z,25.6
2019-05-12T05:04:39.000Z,25.6
2019-05-12T05:06:25.000Z,25.8
2019-05-12T05:07:39.000Z,25.8
2019-05-12T05:09:24.000Z,26
2019-05-12T05:11:24.000Z,26
2019-05-12T05:12:39.000Z,26.1
2019-05-12T05:13:39.000Z,26.1
2019-05-12T05:15:24.000Z,26.3
2019-05-12T05:17:24.000Z,26.3
2019-05-12T05:18:39.000Z,26.3
2019-05-12T05:20:39.000Z,26.3
2019-05-12T05:22:39.000Z,26.4
2019-05-12T05:23:39.000Z,26.4
2019-05-12T05:24:39.000Z,26.5
2019-05-12T05:26:24.000Z,26.7
2019-05-12T05:27:24.000Z,26.7
2019-05-12T05:29:39.000Z,26.5
2019-05-12T05:31:39.000Z,26.5
2019-05-12T05:32:39.000Z,26.5
2019-05-12T05:34:39.000Z,26.6
2019-05-12T05:36:24.000Z,26.5
2019-05-12T05:37:39.000Z,26.5
2019-05-12T05:38:39.000Z,26.4
2019-05-12T05:40:24.000Z,26.4
2019-05-12T05:41:39.000Z,26.4
2019-05-12T05:43:39.000Z,26.2
2019-05-12T05:45:24.000Z,26.2
2019-05-12T05:47:28.000Z,26.1
2019-05-12T05:48:38.000Z,26
2019-05-12T05:49:38.000Z,26.1
2019-05-12T05:51:38.000Z,26.3
2019-05-12T05:53:38.000Z,26.3
2019-05-12T05:55:38.000Z,26.4
2019-05-12T05:57:27.000Z,26.4
2019-05-12T05:59:30.000Z,26.3
2019-05-12T06:01:24.000Z,26.2
2019-05-12T06:03:27.000Z,26.1
2019-05-12T06:04:38.000Z,26.1
2019-05-12T06:06:38.000Z,26.1
2019-05-12T06:08:23.000Z,26.1
2019-05-12T06:09:38.000Z,26.2
2019-05-12T06:11:27.000Z,26.4
2019-05-12T06:12:38.000Z,26.5
2019-05-12T06:14:38.000Z,26.5
2019-05-12T06:16:24.000Z,26.5
2019-05-12T06:18:38.000Z,26.4
2019-05-12T06:20:39.000Z,26.5
2019-05-12T06:22:38.000Z,26.6
2019-05-12T06:24:38.000Z,26.6
2019-05-12T06:26:24.000Z,26.6
2019-05-12T06:27:38.000Z,26.6
2019-05-12T06:29:24.000Z,26.6
2019-05-12T06:31:24.000Z,26.6
2019-05-12T06:32:24.000Z,26.5
2019-05-12T06:33:31.000Z,26.5
2019-05-12T06:34:38.000Z,26.4
2019-05-12T06:35:38.000Z,26.5
2019-05-12T06:37:39.000Z,26.5
2019-05-12T06:39:38.000Z,26.6
2019-05-12T06:41:23.000Z,26.7
2019-05-12T06:42:38.000Z,26.7
2019-05-12T06:44:38.000Z,26.7
2019-05-12T06:46:24.000Z,26.8
2019-05-12T06:47:38.000Z,26.7
2019-05-12T06:49:24.000Z,26.6
2019-05-12T06:50:24.000Z,26.7
2019-05-12T06:51:25.000Z,26.7
2019-05-12T06:52:38.000Z,26.7
2019-05-12T06:54:24.000Z,26.7
2019-05-12T06:56:39.000Z,26.7
2019-05-12T06:58:24.000Z,26.7
2019-05-12T06:59:39.000Z,26.7
2019-05-12T07:01:38.000Z,26.7
2019-05-12T07:02:38.000Z,26.7
2019-05-12T07:04:38.000Z,26.7
2019-05-12T07:06:24.000Z,26.7
2019-05-12T07:07:24.000Z,26.8
2019-05-12T07:08:30.000Z,26.8
2019-05-12T07:10:24.000Z,26.7
2019-05-12T07:11:24.000Z,26.7
2019-05-12T07:12:32.000Z,26.6
2019-05-12T07:14:24.000Z,26.6
2019-05-12T07:15:28.000Z,26.5
2019-05-12T07:17:38.000Z,26.4
2019-05-12T07:19:24.000Z,26.4
2019-05-12T07:20:28.000Z,26.4
2019-05-12T07:22:23.000Z,26.4
2019-05-12T07:23:29.000Z,26.4
2019-05-12T07:24:39.000Z,26.4
2019-05-12T07:26:39.000Z,26.4
2019-05-12T07:28:38.000Z,26.6
2019-05-12T07:30:38.000Z,26.7
2019-05-12T07:31:39.000Z,26.8
2019-05-12T07:33:39.000Z,27.1
2019-05-12T07:35:39.000Z,27.2
2019-05-12T07:37:39.000Z,27.4
2019-05-12T07:39:38.000Z,27.5
2019-05-12T07:41:38.000Z,27.5
2019-05-12T07:43:23.000Z,27.5
2019-05-12T07:44:24.000Z,27.6
2019-05-12T07:45:24.000Z,27.6
2019-05-12T07:47:28.000Z,27.5
2019-05-12T07:49:36.000Z,27.5
2019-05-12T07:51:38.000Z,27.3
2019-05-12T07:52:38.000Z,27.3
2019-05-12T07:53:39.000Z,27.3
2019-05-12T07:55:38.000Z,27.4
2019-05-12T07:57:23.000Z,27.4
2019-05-12T07:58:38.000Z,27.3
2019-05-12T08:00:23.000Z,27.3
2019-05-12T08:01:39.000Z,27.2
2019-05-12T08:03:39.000Z,27.1
2019-05-12T08:05:39.000Z,27.1
2019-05-12T08:07:24.000Z,27.1
2019-05-12T08:08:39.000Z,27.1
2019-05-12T08:10:39.000Z,27.1
2019-05-12T08:12:39.000Z,27.1
2019-05-12T08:13:39.000Z,27.2
2019-05-12T08:15:39.000Z,27.3
2019-05-12T08:17:24.000Z,27.4
2019-05-12T08:19:24.000Z,27.5
2019-05-12T08:20:39.000Z,27.5
2019-05-12T08:21:39.000Z,27.6
2019-05-12T08:23:39.000Z,27.6
2019-05-12T08:24:39.000Z,27.7
2019-05-12T08:26:39.000Z,27.9
2019-05-12T08:28:24.000Z,28
2019-05-12T08:30:39.000Z,28
2019-05-12T08:32:24.000Z,27.9
2019-05-12T08:33:39.000Z,27.9
2019-05-12T08:35:30.000Z,28
2019-05-12T08:36:39.000Z,28
2019-05-12T08:37:39.000Z,28.1
2019-05-12T08:39:25.000Z,28
2019-05-12T08:41:39.000Z,27.8
2019-05-12T08:42:39.000Z,27.8
2019-05-12T08:44:24.000Z,27.9
2019-05-12T08:46:39.000Z,27.7
2019-05-12T08:48:24.000Z,27.6
2019-05-12T08:49:39.000Z,27.5
2019-05-12T08:51:24.000Z,27.3
2019-05-12T08:52:39.000Z,27.3
2019-05-12T08:54:39.000Z,27.1
2019-05-12T08:56:24.000Z,27
2019-05-12T08:58:33.000Z,26.8
2019-05-12T09:00:39.000Z,26.7
2019-05-12T09:02:23.000Z,26.6
2019-05-12T09:03:29.000Z,26.6
2019-05-12T09:05:24.000Z,26.5
2019-05-12T09:06:38.000Z,26.5
2019-05-12T09:08:39.000Z,26.6
2019-05-12T09:10:39.000Z,26.6
2019-05-12T09:12:39.000Z,26.7
2019-05-12T09:13:39.000Z,26.8
2019-05-12T09:15:39.000Z,27
2019-05-12T09:16:39.000Z,27
2019-05-12T09:18:24.000Z,27.2
2019-05-12T09:19:26.000Z,27.1
2019-05-12T09:20:38.000Z,27.1
2019-05-12T09:22:38.000Z,27
2019-05-12T09:24:24.000Z,26.9
2019-05-12T09:25:38.000Z,26.8
2019-05-12T09:27:38.000Z,26.7
2019-05-12T09:28:38.000Z,26.7
2019-05-12T09:30:38.000Z,26.6
2019-05-12T09:32:38.000Z,26.5
2019-05-12T09:34:38.000Z,26.5
2019-05-12T09:36:38.000Z,26.4
2019-05-12T09:37:38.000Z,26.4
2019-05-12T09:39:38.000Z,26.5
2019-05-12T09:41:38.000Z,26.5
2019-05-12T09:43:38.000Z,26.5
2019-05-12T09:45:38.000Z,26.4
2019-05-12T09:47:24.000Z,26.4
2019-05-12T09:48:24.000Z,26.3
2019-05-12T09:49:30.000Z,26.3
2019-05-12T09:50:38.000Z,26.3
2019-05-12T09:51:38.000Z,26.3
2019-05-12T09:53:39.000Z,26.4
2019-05-12T09:55:24.000Z,26.4
2019-05-12T09:56:39.000Z,26.5
2019-05-12T09:58:24.000Z,26.5
2019-05-12T09:59:25.000Z,26.5
2019-05-12T10:00:38.000Z,26.5
2019-05-12T10:02:39.000Z,26.5
2019-05-12T10:04:23.000Z,26.6
2019-05-12T10:05:39.000Z,26.7
2019-05-12T10:07:24.000Z,26.7
2019-05-12T10:09:38.000Z,26.7
2019-05-12T10:11:39.000Z,26.7
2019-05-12T10:12:39.000Z,26.7
2019-05-12T10:14:39.000Z,26.7
2019-05-12T10:16:39.000Z,26.6
2019-05-12T10:18:39.000Z,26.5
2019-05-12T10:19:39.000Z,26.5
2019-05-12T10:21:24.000Z,26.5
2019-05-12T10:22:39.000Z,26.5
2019-05-12T10:24:39.000Z,26.5
2019-05-12T10:26:39.000Z,26.5
2019-05-12T10:28:39.000Z,26.4
2019-05-12T10:30:39.000Z,26.4
2019-05-12T10:32:24.000Z,26.4
2019-05-12T10:33:39.000Z,26.5
2019-05-12T10:35:24.000Z,26.5
2019-05-12T10:36:39.000Z,26.5
2019-05-12T10:38:24.000Z,26.4
2019-05-12T10:39:39.000Z,26.5
2019-05-12T10:41:24.000Z,26.6
2019-05-12T10:42:39.000Z,26.7
2019-05-12T10:44:24.000Z,26.7
2019-05-12T10:45:39.000Z,26.7
2019-05-12T10:47:39.000Z,26.7
2019-05-12T10:48:39.000Z,26.7
2019-05-12T10:49:39.000Z,26.9
2019-05-12T10:51:39.000Z,27.1
2019-05-12T10:53:24.000Z,27.2
2019-05-12T10:54:39.000Z,27.1
2019-05-12T10:55:39.000Z,27.2
2019-05-12T10:56:39.000Z,27.3
2019-05-12T10:58:24.000Z,27.4
2019-05-12T10:59:24.000Z,27.4
2019-05-12T11:00:26.000Z,27.4
2019-05-12T11:01:39.000Z,27.2
2019-05-12T11:03:39.000Z,27
2019-05-12T11:05:24.000Z,26.9
2019-05-12T11:06:39.000Z,26.8
2019-05-12T11:08:24.000Z,26.6
2019-05-12T11:09:29.000Z,26.6
2019-05-12T11:10:39.000Z,26.5
2019-05-12T11:11:39.000Z,26.5
2019-05-12T11:13:39.000Z,26.5
2019-05-12T11:15:24.000Z,26.4
2019-05-12T11:16:31.000Z,26.4
2019-05-12T11:17:39.000Z,26.4
2019-05-12T11:19:39.000Z,26.3
2019-05-12T11:21:39.000Z,26.2
2019-05-12T11:23:39.000Z,26.4
2019-05-12T11:24:39.000Z,26.5
2019-05-12T11:26:39.000Z,26.6
2019-05-12T11:27:39.000Z,26.7
2019-05-12T11:29:24.000Z,26.9
2019-05-12T11:31:39.000Z,26.8
2019-05-12T11:33:39.000Z,26.8
2019-05-12T11:34:39.000Z,26.8
2019-05-12T11:35:39.000Z,26.9
2019-05-12T11:37:24.000Z,27.1
2019-05-12T11:38:39.000Z,27.2
2019-05-12T11:39:39.000Z,27.2
2019-05-12T11:41:24.000Z,27.2
2019-05-12T11:42:39.000Z,27.2
2019-05-12T11:44:39.000Z,27
2019-05-12T11:45:39.000Z,27.1
2019-05-12T11:47:24.000Z,27.2
2019-05-12T11:48:39.000Z,27.1
2019-05-12T11:50:39.000Z,26.9
2019-05-12T11:52:24.000Z,26.7
2019-05-12T11:53:24.000Z,26.7
2019-05-12T11:54:27.000Z,26.6
2019-05-12T11:55:29.000Z,26.6
2019-05-12T11:56:39.000Z,26.5
2019-05-12T11:58:39.000Z,26.4
2019-05-12T11:59:39.000Z,26.4
2019-05-12T12:01:24.000Z,26.4
2019-05-12T12:02:28.000Z,26.4
2019-05-12T12:04:39.000Z,26.4
2019-05-12T12:06:24.000Z,26.5
2019-05-12T12:08:24.000Z,26.6
2019-05-12T12:09:39.000Z,26.5
2019-05-12T12:11:24.000Z,26.5
2019-05-12T12:12:39.000Z,26.4
2019-05-12T12:14:39.000Z,26.3
2019-05-12T12:16:39.000Z,26.3
2019-05-12T12:18:39.000Z,26.2
2019-05-12T12:20:39.000Z,26.2
2019-05-12T12:22:24.000Z,26.3
2019-05-12T12:23:39.000Z,26.3
2019-05-12T12:25:39.000Z,26.3
2019-05-12T12:27:39.000Z,26.2
2019-05-12T12:28:39.000Z,26.3
2019-05-12T12:29:39.000Z,26.4
2019-05-12T12:30:39.000Z,26.6
2019-05-12T12:32:24.000Z,26.8
2019-05-12T12:33:39.000Z,26.8
2019-05-12T12:35:24.000Z,26.8
2019-05-12T12:36:39.000Z,26.8
2019-05-12T12:38:24.000Z,26.8
2019-05-12T12:39:39.000Z,26.8
2019-05-12T12:40:39.000Z,26.9
2019-05-12T12:42:39.000Z,27
2019-05-12T12:44:39.000Z,26.9
2019-05-12T12:46:39.000Z,26.8
2019-05-12T12:48:24.000Z,26.8
2019-05-12T12:49:39.000Z,26.7
2019-05-12T12:51:39.000Z,26.6
2019-05-12T12:52:39.000Z,26.6
2019-05-12T12:54:39.000Z,26.7
2019-05-12T12:56:24.000Z,26.7
2019-05-12T12:58:29.000Z,26.6
2019-05-12T12:59:39.000Z,26.5
2019-05-12T13:01:28.000Z,26.4
2019-05-12T13:03:24.000Z,26.2
2019-05-12T13:04:24.000Z,26.1
2019-05-12T13:05:39.000Z,26.1
2019-05-12T13:06:39.000Z,26.2
2019-05-12T13:08:24.000Z,26.5
2019-05-12T13:09:24.000Z,26.6
2019-05-12T13:10:24.000Z,26.6
2019-05-12T13:11:33.000Z,26.6
2019-05-12T13:12:39.000Z,26.6
2019-05-12T13:13:39.000Z,26.7
2019-05-12T13:15:39.000Z,26.7
2019-05-12T13:16:39.000Z,26.7
2019-05-12T13:18:24.000Z,26.8
2019-05-12T13:20:39.000Z,26.7
2019-05-12T13:22:39.000Z,26.6
2019-05-12T13:24:39.000Z,26.7
2019-05-12T13:26:39.000Z,26.7
2019-05-12T13:28:25.000Z,26.8
2019-05-12T13:29:33.000Z,26.8
2019-05-12T13:30:39.000Z,26.7
2019-05-12T13:32:24.000Z,26.7
2019-05-12T13:33:39.000Z,26.6
2019-05-12T13:35:39.000Z,26.5
2019-05-12T13:37:39.000Z,26.5
2019-05-12T13:38:39.000Z,26.6
2019-05-12T13:40:39.000Z,26.6
2019-05-12T13:41:39.000Z,26.7
2019-05-12T13:43:39.000Z,26.7
2019-05-12T13:44:39.000Z,26.8
2019-05-12T13:45:39.000Z,26.8
2019-05-12T13:46:39.000Z,26.8
2019-05-12T13:48:39.000Z,26.9
2019-05-12T13:50:24.000Z,26.9
2019-05-12T13:52:28.000Z,26.7
2019-05-12T13:53:39.000Z,26.6
2019-05-12T13:55:39.000Z,26.5
2019-05-12T13:57:39.000Z,26.4
2019-05-12T13:59:24.000Z,26.3
2019-05-12T14:00:39.000Z,26.3
2019-05-12T14:02:39.000Z,26.2
2019-05-12T14:04:24.000Z,26.2
2019-05-12T14:05:39.000Z,26.2
2019-05-12T14:07:39.000Z,26.1
2019-05-12T14:09:39.000Z,26.2
2019-05-12T14:11:39.000Z,26.4
2019-05-12T14:12:39.000Z,26.5
2019-05-12T14:13:39.000Z,26.6
2019-05-12T14:15:24.000Z,26.8
2019-05-12T14:16:39.000Z,26.8
2019-05-12T14:17:39.000Z,26.8
2019-05-12T14:19:39.000Z,26.8
2019-05-12T14:21:24.000Z,26.8
2019-05-12T14:22:26.000Z,26.8
2019-05-12T14:24:39.000Z,26.7
2019-05-12T14:26:39.000Z,26.6
2019-05-12T14:28:39.000Z,26.4
2019-05-12T14:30:39.000Z,26.3
2019-05-12T14:32:39.000Z,26.3
2019-05-12T14:34:39.000Z,26.2
2019-05-12T14:36:24.000Z,26.3
2019-05-12T14:37:39.000Z,26.3
2019-05-12T14:39:39.000Z,26.3
2019-05-12T14:41:24.000Z,26.2
2019-05-12T14:42:32.000Z,26.2
2019-05-12T14:43:39.000Z,26.1
2019-05-12T14:45:24.000Z,26.2
2019-05-12T14:46:39.000Z,26.2
2019-05-12T14:48:24.000Z,26.2
2019-05-12T14:49:28.000Z,26.1
2019-05-12T14:50:39.000Z,26.1
2019-05-12T14:51:39.000Z,26.2
2019-05-12T14:52:39.000Z,26.4
2019-05-12T14:54:39.000Z,26.6
2019-05-12T14:55:39.000Z,26.8
2019-05-12T14:57:24.000Z,27
2019-05-12T14:59:39.000Z,26.8
2019-05-12T15:03:39.000Z,26.5
2019-05-12T15:05:24.000Z,26.3
2019-05-12T15:06:29.000Z,26.2
2019-05-12T15:08:24.000Z,26.1
2019-05-12T15:10:39.000Z,26
2019-05-12T15:11:39.000Z,26
2019-05-12T15:12:39.000Z,26.2
2019-05-12T15:14:24.000Z,26.4
2019-05-12T15:15:39.000Z,26.5
2019-05-12T15:17:39.000Z,26.5
2019-05-12T15:19:24.000Z,26.6
2019-05-12T15:20:39.000Z,26.5
2019-05-12T15:22:24.000Z,26.4
2019-05-12T15:23:32.000Z,26.4
2019-05-12T15:24:39.000Z,26.3
2019-05-12T15:26:39.000Z,26.4
2019-05-12T15:28:39.000Z,26.5
2019-05-12T15:29:39.000Z,26.6
2019-05-12T15:31:39.000Z,26.7
2019-05-12T15:33:39.000Z,26.7
2019-05-12T15:35:39.000Z,26.7
2019-05-12T15:37:24.000Z,26.8
2019-05-12T15:38:39.000Z,26.8
2019-05-12T15:40:39.000Z,26.9
2019-05-12T15:42:39.000Z,27
2019-05-12T15:44:30.000Z,27
2019-05-12T15:45:39.000Z,27
2019-05-12T15:47:29.000Z,26.9
2019-05-12T15:49:25.000Z,26.9
2019-05-12T15:50:25.000Z,26.9
2019-05-12T15:51:39.000Z,26.9
2019-05-12T15:53:26.000Z,26.9
2019-05-12T15:54:39.000Z,26.8
2019-05-12T15:56:24.000Z,26.8
2019-05-12T15:57:39.000Z,26.8
2019-05-12T15:59:39.000Z,26.9
2019-05-12T16:01:39.000Z,27
2019-05-12T16:03:24.000Z,27
2019-05-12T16:04:39.000Z,27
2019-05-12T16:06:39.000Z,26.9
2019-05-12T16:08:23.000Z,26.9
2019-05-12T16:09:39.000Z,26.9
2019-05-12T16:11:39.000Z,27
2019-05-12T16:13:39.000Z,27.1
2019-05-12T16:15:39.000Z,27.1
2019-05-12T16:17:24.000Z,27.1
2019-05-12T16:18:26.000Z,27
2019-05-12T16:20:39.000Z,26.9
2019-05-12T16:21:39.000Z,26.9
2019-05-12T16:22:39.000Z,27
2019-05-12T16:24:26.000Z,27
2019-05-12T16:25:28.000Z,27
2019-05-12T16:26:39.000Z,26.9
2019-05-12T16:28:24.000Z,26.9
2019-05-12T16:29:39.000Z,26.8
2019-05-12T16:31:39.000Z,26.7
2019-05-12T16:33:39.000Z,26.7
2019-05-12T16:34:39.000Z,26.7
2019-05-12T16:36:39.000Z,26.8
2019-05-12T16:38:39.000Z,26.7
2019-05-12T16:40:39.000Z,26.8
2019-05-12T16:42:39.000Z,26.8
2019-05-12T16:44:24.000Z,26.7
2019-05-12T16:45:39.000Z,26.7
2019-05-12T16:46:39.000Z,26.7
2019-05-12T16:48:30.000Z,26.9
2019-05-12T16:49:32.000Z,26.9
2019-05-12T16:51:39.000Z,26.9
2019-05-12T16:52:39.000Z,26.9
2019-05-12T16:54:39.000Z,27
2019-05-12T16:55:39.000Z,27.1
2019-05-12T16:57:39.000Z,27.1
2019-05-12T16:59:39.000Z,27
2019-05-12T17:01:24.000Z,27
2019-05-12T17:02:38.000Z,27
2019-05-12T17:03:39.000Z,26.9
2019-05-12T17:04:39.000Z,27
2019-05-12T17:06:24.000Z,27.2
2019-05-12T17:07:26.000Z,27.2
2019-05-12T17:08:39.000Z,27.1
2019-05-12T17:09:39.000Z,27.2
2019-05-12T17:11:24.000Z,27.4
2019-05-12T17:12:32.000Z,27.3
2019-05-12T17:13:39.000Z,27.2
2019-05-12T17:15:39.000Z,27.2
2019-05-12T17:17:39.000Z,27.2
2019-05-12T17:19:39.000Z,27.1
2019-05-12T17:20:39.000Z,27.2
2019-05-12T17:22:39.000Z,27.2
2019-05-12T17:24:39.000Z,27.2
2019-05-12T17:25:39.000Z,27.2
2019-05-12T17:26:39.000Z,27.3
2019-05-12T17:28:39.000Z,27.4
2019-05-12T17:29:39.000Z,27.5
2019-05-12T17:31:39.000Z,27.6
2019-05-12T17:32:39.000Z,27.6
2019-05-12T17:34:24.000Z,27.6
2019-05-12T17:35:29.000Z,27.5
2019-05-12T17:36:39.000Z,27.3
2019-05-12T17:38:24.000Z,27.2
2019-05-12T17:39:29.000Z,27.1
2019-05-12T17:40:39.000Z,27
2019-05-12T17:42:24.000Z,26.8
2019-05-12T17:43:39.000Z,26.7
2019-05-12T17:45:39.000Z,26.6
2019-05-12T17:47:24.000Z,26.6
2019-05-12T17:48:39.000Z,26.6
2019-05-12T17:50:39.000Z,26.5
2019-05-12T17:52:39.000Z,26.5
2019-05-12T17:53:39.000Z,26.5
2019-05-12T17:55:39.000Z,26.6
2019-05-12T17:57:39.000Z,26.6
2019-05-12T17:59:23.000Z,26.5
2019-05-12T18:00:39.000Z,26.5
2019-05-12T18:02:39.000Z,26.4
2019-05-12T18:04:24.000Z,26.4
2019-05-12T18:05:39.000Z,26.4
2019-05-12T18:07:39.000Z,26.3
2019-05-12T18:09:39.000Z,26.3
2019-05-12T18:11:39.000Z,26.3
2019-05-12T18:13:24.000Z,26.4
2019-05-12T18:14:27.000Z,26.4
2019-05-12T18:15:31.000Z,26.4
2019-05-12T18:17:39.000Z,26.4
2019-05-12T18:19:39.000Z,26.3
2019-05-12T18:21:23.000Z,26.4
2019-05-12T18:22:39.000Z,26.4
2019-05-12T18:24:39.000Z,26.3
2019-05-12T18:26:39.000Z,26.2
2019-05-12T18:28:27.000Z,26.2
2019-05-12T18:29:39.000Z,26.2
2019-05-12T18:30:39.000Z,26.3
2019-05-12T18:32:39.000Z,26.4
2019-05-12T18:34:23.000Z,26.5
2019-05-12T18:35:39.000Z,26.5
2019-05-12T18:36:39.000Z,26.5
2019-05-12T18:38:24.000Z,26.6
2019-05-12T18:39:39.000Z,26.6
2019-05-12T18:41:39.000Z,26.6
2019-05-12T18:42:39.000Z,26.6
2019-05-12T18:43:39.000Z,26.8
2019-05-12T18:45:39.000Z,26.8
2019-05-12T18:47:24.000Z,26.8
2019-05-12T18:49:39.000Z,26.6
2019-05-12T18:51:38.000Z,26.4
2019-05-12T18:53:23.000Z,26.4
2019-05-12T18:54:38.000Z,26.3
2019-05-12T18:56:23.000Z,26.2
2019-05-12T18:57:38.000Z,26.2
2019-05-12T18:59:23.000Z,26.2
2019-05-12T19:00:38.000Z,26.1
2019-05-12T19:01:38.000Z,26.2
2019-05-12T19:03:24.000Z,26.4
2019-05-12T19:04:38.000Z,26.4
2019-05-12T19:06:38.000Z,26.4
2019-05-12T19:08:38.000Z,26.5
2019-05-12T19:10:38.000Z,26.6
2019-05-12T19:12:31.000Z,26.5
2019-05-12T19:14:23.000Z,26.4
2019-05-12T19:15:38.000Z,26.3
2019-05-12T19:17:38.000Z,26.2
2019-05-12T19:19:38.000Z,26.3
2019-05-12T19:20:38.000Z,26.3
2019-05-12T19:21:38.000Z,26.4
2019-05-12T19:23:23.000Z,26.6
2019-05-12T19:24:38.000Z,26.5
2019-05-12T19:26:38.000Z,26.5
2019-05-12T19:28:23.000Z,26.5
2019-05-12T19:29:28.000Z,26.4
2019-05-12T19:31:23.000Z,26.3
2019-05-12T19:32:26.000Z,26.3
2019-05-12T19:33:38.000Z,26.2
2019-05-12T19:35:38.000Z,26.1
2019-05-12T19:37:23.000Z,26.1
2019-05-12T19:38:38.000Z,26.1
2019-05-12T19:40:38.000Z,26.1
2019-05-12T19:41:38.000Z,26.2
2019-05-12T19:42:38.000Z,26.3
2019-05-12T19:44:23.000Z,26.4
2019-05-12T19:45:24.000Z,26.4
2019-05-12T19:46:38.000Z,26.4
2019-05-12T19:48:26.000Z,26.4
2019-05-12T19:50:38.000Z,26.2
2019-05-12T19:52:38.000Z,26.1
2019-05-12T19:53:38.000Z,26.2
2019-05-12T19:55:38.000Z,26.3
2019-05-12T19:57:25.000Z,26.4
2019-05-12T19:58:38.000Z,26.4
2019-05-12T20:00:38.000Z,26.3
2019-05-12T20:02:38.000Z,26.3
2019-05-12T20:03:38.000Z,26.4
2019-05-12T20:05:38.000Z,26.5
2019-05-12T20:06:38.000Z,26.5
2019-05-12T20:07:38.000Z,26.6
2019-05-12T20:09:38.000Z,26.8
2019-05-12T20:11:23.000Z,26.7
2019-05-12T20:13:28.000Z,26.4
2019-05-12T20:14:38.000Z,26.3
2019-05-12T20:15:38.000Z,26.2
2019-05-12T20:17:38.000Z,26.2
2019-05-12T20:18:38.000Z,26.2
2019-05-12T20:20:23.000Z,26.2
2019-05-12T20:21:25.000Z,26.2
2019-05-12T20:23:38.000Z,26
2019-05-12T20:24:39.000Z,26.1
2019-05-12T20:26:23.000Z,26.2
2019-05-12T20:27:38.000Z,26.3
2019-05-12T20:29:23.000Z,26.4
2019-05-12T20:30:27.000Z,26.3
2019-05-12T20:32:38.000Z,26.1
2019-05-12T20:33:38.000Z,26.2
2019-05-12T20:35:38.000Z,26.3
2019-05-12T20:37:38.000Z,26.2
2019-05-12T20:39:38.000Z,26.1
2019-05-12T20:41:24.000Z,26.1
2019-05-12T20:43:32.000Z,26
2019-05-12T20:44:38.000Z,25.9
2019-05-12T20:46:23.000Z,25.9
2019-05-12T20:47:38.000Z,25.8
2019-05-12T20:49:38.000Z,25.7
2019-05-12T20:51:38.000Z,25.7
2019-05-12T20:53:24.000Z,25.8
2019-05-12T20:55:38.000Z,25.7
2019-05-12T20:57:38.000Z,25.6
2019-05-12T20:59:27.000Z,25.6
2019-05-12T21:00:38.000Z,25.6
2019-05-12T21:02:39.000Z,25.6
2019-05-12T21:03:39.000Z,25.7
2019-05-12T21:05:39.000Z,25.8
2019-05-12T21:07:24.000Z,25.8
2019-05-12T21:08:39.000Z,25.9
2019-05-12T21:10:23.000Z,25.8
2019-05-12T21:11:39.000Z,25.8
2019-05-12T21:12:39.000Z,25.8
2019-05-12T21:14:39.000Z,25.7
2019-05-12T21:16:24.000Z,25.7
2019-05-12T21:18:39.000Z,25.6